sensor_id;sensor_type;location;lat;lon;timestamp;P1;durP1;ratioP1;P2;durP2;ratioP2
52724;SDS011;38621;52.830;6.914;2023-05-07T00:01:45;10.75;;;8.05;;
52724;SDS011;38621;52.830;6.914;2023-05-07T00:04:11;10.55;;;8.32;;
52724;SDS011;38621;52.830;6.914;2023-05-07T00:06:38;10.57;;;8.30;;
52724;SDS011;38621;52.830;6.914;2023-05-07T00:09:04;12.88;;;9.05;;
52724;SDS011;38621;52.830;6.914;2023-05-07T00:11:31;11.57;;;9.27;;
52724;SDS011;38621;52.830;6.914;2023-05-07T00:13:58;12.88;;;9.60;;
52724;SDS011;38621;52.830;6.914;2023-05-07T00:16:23;13.43;;;9.52;;
52724;SDS011;38621;52.830;6.914;2023-05-07T00:18:49;12.02;;;9.90;;
52724;SDS011;38621;52.830;6.914;2023-05-07T00:21:15;12.70;;;9.75;;
52724;SDS011;38621;52.830;6.914;2023-05-07T00:23:41;13.18;;;9.93;;
52724;SDS011;38621;52.830;6.914;2023-05-07T00:26:07;13.77;;;10.10;;
52724;SDS011;38621;52.830;6.914;2023-05-07T00:28:32;12.77;;;9.60;;
52724;SDS011;38621;52.830;6.914;2023-05-07T00:30:58;13.70;;;9.18;;
52724;SDS011;38621;52.830;6.914;2023-05-07T00:33:24;13.18;;;10.60;;
52724;SDS011;38621;52.830;6.914;2023-05-07T00:35:51;14.27;;;10.13;;
52724;SDS011;38621;52.830;6.914;2023-05-07T00:38:17;13.00;;;9.52;;
52724;SDS011;38621;52.830;6.914;2023-05-07T00:40:43;13.25;;;9.50;;
52724;SDS011;38621;52.830;6.914;2023-05-07T00:43:08;12.30;;;9.95;;
52724;SDS011;38621;52.830;6.914;2023-05-07T00:45:34;13.30;;;9.63;;
52724;SDS011;38621;52.830;6.914;2023-05-07T00:48:00;13.23;;;10.05;;
52724;SDS011;38621;52.830;6.914;2023-05-07T00:50:27;14.48;;;10.82;;
52724;SDS011;38621;52.830;6.914;2023-05-07T00:52:54;13.45;;;10.75;;
52724;SDS011;38621;52.830;6.914;2023-05-07T00:55:22;13.30;;;10.68;;
52724;SDS011;38621;52.830;6.914;2023-05-07T00:57:48;16.40;;;10.18;;
52724;SDS011;38621;52.830;6.914;2023-05-07T01:00:15;13.50;;;9.95;;
52724;SDS011;38621;52.830;6.914;2023-05-07T01:02:41;12.75;;;10.07;;
52724;SDS011;38621;52.830;6.914;2023-05-07T01:05:09;14.00;;;10.48;;
52724;SDS011;38621;52.830;6.914;2023-05-07T01:07:38;14.75;;;11.10;;
52724;SDS011;38621;52.830;6.914;2023-05-07T01:10:06;13.27;;;10.32;;
52724;SDS011;38621;52.830;6.914;2023-05-07T01:12:33;13.52;;;10.35;;
52724;SDS011;38621;52.830;6.914;2023-05-07T01:15:00;15.38;;;10.90;;
52724;SDS011;38621;52.830;6.914;2023-05-07T01:17:27;14.10;;;10.65;;
52724;SDS011;38621;52.830;6.914;2023-05-07T01:19:53;14.27;;;10.52;;
52724;SDS011;38621;52.830;6.914;2023-05-07T01:22:26;13.20;;;10.75;;
52724;SDS011;38621;52.830;6.914;2023-05-07T01:24:58;15.38;;;10.65;;
52724;SDS011;38621;52.830;6.914;2023-05-07T01:27:25;15.77;;;11.40;;
52724;SDS011;38621;52.830;6.914;2023-05-07T01:29:50;16.83;;;11.00;;
52724;SDS011;38621;52.830;6.914;2023-05-07T01:32:17;15.38;;;11.13;;
52724;SDS011;38621;52.830;6.914;2023-05-07T01:34:46;15.48;;;11.60;;
52724;SDS011;38621;52.830;6.914;2023-05-07T01:37:15;14.07;;;10.90;;
52724;SDS011;38621;52.830;6.914;2023-05-07T01:39:42;17.52;;;11.48;;
52724;SDS011;38621;52.830;6.914;2023-05-07T01:42:08;15.45;;;11.38;;
52724;SDS011;38621;52.830;6.914;2023-05-07T01:44:34;16.33;;;11.65;;
52724;SDS011;38621;52.830;6.914;2023-05-07T01:46:59;15.63;;;11.38;;
52724;SDS011;38621;52.830;6.914;2023-05-07T01:49:27;14.75;;;10.65;;
52724;SDS011;38621;52.830;6.914;2023-05-07T01:51:53;16.25;;;11.65;;
52724;SDS011;38621;52.830;6.914;2023-05-07T01:54:21;16.88;;;12.57;;
52724;SDS011;38621;52.830;6.914;2023-05-07T01:56:52;15.90;;;11.38;;
52724;SDS011;38621;52.830;6.914;2023-05-07T01:59:18;16.50;;;11.63;;
52724;SDS011;38621;52.830;6.914;2023-05-07T02:01:44;16.50;;;12.55;;
52724;SDS011;38621;52.830;6.914;2023-05-07T02:04:09;17.55;;;12.45;;
52724;SDS011;38621;52.830;6.914;2023-05-07T02:06:35;17.63;;;12.65;;
52724;SDS011;38621;52.830;6.914;2023-05-07T02:09:01;20.20;;;13.05;;
52724;SDS011;38621;52.830;6.914;2023-05-07T02:11:26;20.35;;;13.27;;
52724;SDS011;38621;52.830;6.914;2023-05-07T02:13:52;19.67;;;13.70;;
52724;SDS011;38621;52.830;6.914;2023-05-07T02:16:18;19.90;;;13.23;;
52724;SDS011;38621;52.830;6.914;2023-05-07T02:18:44;21.10;;;13.77;;
52724;SDS011;38621;52.830;6.914;2023-05-07T02:21:10;18.95;;;13.75;;
52724;SDS011;38621;52.830;6.914;2023-05-07T02:23:36;20.67;;;14.45;;
52724;SDS011;38621;52.830;6.914;2023-05-07T02:26:04;19.27;;;13.85;;
52724;SDS011;38621;52.830;6.914;2023-05-07T02:28:29;20.42;;;14.25;;
52724;SDS011;38621;52.830;6.914;2023-05-07T02:30:55;22.08;;;15.20;;
52724;SDS011;38621;52.830;6.914;2023-05-07T02:33:23;18.52;;;14.25;;
52724;SDS011;38621;52.830;6.914;2023-05-07T02:35:49;20.80;;;14.88;;
52724;SDS011;38621;52.830;6.914;2023-05-07T02:38:17;20.45;;;14.07;;
52724;SDS011;38621;52.830;6.914;2023-05-07T02:40:43;20.08;;;14.70;;
52724;SDS011;38621;52.830;6.914;2023-05-07T02:43:08;19.65;;;13.98;;
52724;SDS011;38621;52.830;6.914;2023-05-07T02:45:34;20.95;;;15.35;;
52724;SDS011;38621;52.830;6.914;2023-05-07T02:48:02;23.65;;;15.95;;
52724;SDS011;38621;52.830;6.914;2023-05-07T02:50:29;23.80;;;15.43;;
52724;SDS011;38621;52.830;6.914;2023-05-07T02:52:54;23.30;;;15.75;;
52724;SDS011;38621;52.830;6.914;2023-05-07T02:55:20;23.80;;;16.15;;
52724;SDS011;38621;52.830;6.914;2023-05-07T02:57:46;20.63;;;15.23;;
52724;SDS011;38621;52.830;6.914;2023-05-07T03:00:16;24.95;;;16.25;;
52724;SDS011;38621;52.830;6.914;2023-05-07T03:02:43;28.63;;;17.42;;
52724;SDS011;38621;52.830;6.914;2023-05-07T03:05:09;25.17;;;16.05;;
52724;SDS011;38621;52.830;6.914;2023-05-07T03:07:36;22.75;;;15.60;;
52724;SDS011;38621;52.830;6.914;2023-05-07T03:10:02;24.80;;;16.23;;
52724;SDS011;38621;52.830;6.914;2023-05-07T03:12:28;22.77;;;16.30;;
52724;SDS011;38621;52.830;6.914;2023-05-07T03:14:54;23.05;;;15.43;;
52724;SDS011;38621;52.830;6.914;2023-05-07T03:17:21;21.35;;;14.85;;
52724;SDS011;38621;52.830;6.914;2023-05-07T03:19:47;22.40;;;15.80;;
52724;SDS011;38621;52.830;6.914;2023-05-07T03:22:13;24.17;;;15.20;;
52724;SDS011;38621;52.830;6.914;2023-05-07T03:24:39;23.67;;;16.05;;
52724;SDS011;38621;52.830;6.914;2023-05-07T03:27:04;23.33;;;15.45;;
52724;SDS011;38621;52.830;6.914;2023-05-07T03:29:30;21.23;;;14.98;;
52724;SDS011;38621;52.830;6.914;2023-05-07T03:31:56;20.90;;;14.73;;
52724;SDS011;38621;52.830;6.914;2023-05-07T03:34:21;23.75;;;15.50;;
52724;SDS011;38621;52.830;6.914;2023-05-07T03:36:50;25.10;;;16.08;;
52724;SDS011;38621;52.830;6.914;2023-05-07T03:39:16;23.23;;;15.60;;
52724;SDS011;38621;52.830;6.914;2023-05-07T03:41:42;24.67;;;15.70;;
52724;SDS011;38621;52.830;6.914;2023-05-07T03:44:07;23.95;;;15.32;;
52724;SDS011;38621;52.830;6.914;2023-05-07T03:46:33;22.13;;;15.35;;
52724;SDS011;38621;52.830;6.914;2023-05-07T03:48:59;20.95;;;14.60;;
52724;SDS011;38621;52.830;6.914;2023-05-07T03:51:25;21.33;;;15.00;;
52724;SDS011;38621;52.830;6.914;2023-05-07T03:53:52;21.55;;;14.30;;
52724;SDS011;38621;52.830;6.914;2023-05-07T03:56:18;19.95;;;14.93;;
52724;SDS011;38621;52.830;6.914;2023-05-07T03:58:44;18.25;;;13.65;;
52724;SDS011;38621;52.830;6.914;2023-05-07T04:01:10;19.98;;;14.05;;
52724;SDS011;38621;52.830;6.914;2023-05-07T04:03:37;19.15;;;13.75;;
52724;SDS011;38621;52.830;6.914;2023-05-07T04:06:02;18.70;;;13.88;;
52724;SDS011;38621;52.830;6.914;2023-05-07T04:08:28;19.27;;;13.82;;
52724;SDS011;38621;52.830;6.914;2023-05-07T04:10:54;19.50;;;13.75;;
52724;SDS011;38621;52.830;6.914;2023-05-07T04:13:21;17.42;;;12.57;;
52724;SDS011;38621;52.830;6.914;2023-05-07T04:15:46;17.08;;;12.27;;
52724;SDS011;38621;52.830;6.914;2023-05-07T04:18:14;18.65;;;13.10;;
52724;SDS011;38621;52.830;6.914;2023-05-07T04:20:40;18.80;;;13.35;;
52724;SDS011;38621;52.830;6.914;2023-05-07T04:23:06;18.23;;;14.10;;
52724;SDS011;38621;52.830;6.914;2023-05-07T04:25:32;17.15;;;12.90;;
52724;SDS011;38621;52.830;6.914;2023-05-07T04:27:58;18.73;;;12.88;;
52724;SDS011;38621;52.830;6.914;2023-05-07T04:30:24;18.23;;;13.13;;
52724;SDS011;38621;52.830;6.914;2023-05-07T04:32:50;16.40;;;12.50;;
52724;SDS011;38621;52.830;6.914;2023-05-07T04:35:16;17.38;;;13.00;;
52724;SDS011;38621;52.830;6.914;2023-05-07T04:37:42;18.80;;;12.30;;
52724;SDS011;38621;52.830;6.914;2023-05-07T04:40:08;16.45;;;12.75;;
52724;SDS011;38621;52.830;6.914;2023-05-07T04:42:34;17.33;;;12.80;;
52724;SDS011;38621;52.830;6.914;2023-05-07T04:45:00;16.90;;;12.88;;
52724;SDS011;38621;52.830;6.914;2023-05-07T04:47:27;16.70;;;11.77;;
52724;SDS011;38621;52.830;6.914;2023-05-07T04:49:52;16.30;;;12.50;;
52724;SDS011;38621;52.830;6.914;2023-05-07T04:52:18;19.92;;;13.10;;
52724;SDS011;38621;52.830;6.914;2023-05-07T04:54:44;19.20;;;12.73;;
52724;SDS011;38621;52.830;6.914;2023-05-07T04:57:10;19.20;;;13.20;;
52724;SDS011;38621;52.830;6.914;2023-05-07T04:59:35;16.30;;;12.60;;
52724;SDS011;38621;52.830;6.914;2023-05-07T05:02:01;18.52;;;12.13;;
52724;SDS011;38621;52.830;6.914;2023-05-07T05:04:29;17.00;;;12.68;;
52724;SDS011;38621;52.830;6.914;2023-05-07T05:06:55;18.13;;;12.27;;
52724;SDS011;38621;52.830;6.914;2023-05-07T05:09:21;18.33;;;12.75;;
52724;SDS011;38621;52.830;6.914;2023-05-07T05:11:46;19.40;;;13.25;;
52724;SDS011;38621;52.830;6.914;2023-05-07T05:14:12;17.33;;;12.60;;
52724;SDS011;38621;52.830;6.914;2023-05-07T05:16:38;19.55;;;12.85;;
52724;SDS011;38621;52.830;6.914;2023-05-07T05:19:04;17.92;;;12.63;;
52724;SDS011;38621;52.830;6.914;2023-05-07T05:21:31;16.60;;;12.30;;
52724;SDS011;38621;52.830;6.914;2023-05-07T05:23:57;19.17;;;14.82;;
52724;SDS011;38621;52.830;6.914;2023-05-07T05:26:23;16.95;;;12.60;;
52724;SDS011;38621;52.830;6.914;2023-05-07T05:28:49;17.00;;;13.13;;
52724;SDS011;38621;52.830;6.914;2023-05-07T05:31:15;18.38;;;13.30;;
52724;SDS011;38621;52.830;6.914;2023-05-07T05:33:41;17.95;;;13.00;;
52724;SDS011;38621;52.830;6.914;2023-05-07T05:36:09;18.63;;;13.60;;
52724;SDS011;38621;52.830;6.914;2023-05-07T05:38:35;16.90;;;12.60;;
52724;SDS011;38621;52.830;6.914;2023-05-07T05:41:01;18.90;;;12.82;;
52724;SDS011;38621;52.830;6.914;2023-05-07T05:43:27;19.48;;;12.80;;
52724;SDS011;38621;52.830;6.914;2023-05-07T05:45:53;17.60;;;12.35;;
52724;SDS011;38621;52.830;6.914;2023-05-07T05:48:20;19.33;;;13.05;;
52724;SDS011;38621;52.830;6.914;2023-05-07T05:50:45;19.83;;;13.95;;
52724;SDS011;38621;52.830;6.914;2023-05-07T05:53:11;17.10;;;12.57;;
52724;SDS011;38621;52.830;6.914;2023-05-07T05:55:37;18.20;;;12.85;;
52724;SDS011;38621;52.830;6.914;2023-05-07T05:58:03;18.50;;;13.85;;
52724;SDS011;38621;52.830;6.914;2023-05-07T06:00:28;17.48;;;12.77;;
52724;SDS011;38621;52.830;6.914;2023-05-07T06:02:54;18.20;;;13.30;;
52724;SDS011;38621;52.830;6.914;2023-05-07T06:05:20;20.17;;;13.55;;
52724;SDS011;38621;52.830;6.914;2023-05-07T06:07:46;19.33;;;13.40;;
52724;SDS011;38621;52.830;6.914;2023-05-07T06:10:12;18.67;;;12.98;;
52724;SDS011;38621;52.830;6.914;2023-05-07T06:12:37;20.95;;;13.52;;
52724;SDS011;38621;52.830;6.914;2023-05-07T06:15:03;17.58;;;13.13;;
52724;SDS011;38621;52.830;6.914;2023-05-07T06:17:29;18.80;;;12.80;;
52724;SDS011;38621;52.830;6.914;2023-05-07T06:19:55;19.60;;;13.77;;
52724;SDS011;38621;52.830;6.914;2023-05-07T06:22:21;18.70;;;13.02;;
52724;SDS011;38621;52.830;6.914;2023-05-07T06:24:47;18.23;;;13.05;;
52724;SDS011;38621;52.830;6.914;2023-05-07T06:27:12;18.55;;;13.18;;
52724;SDS011;38621;52.830;6.914;2023-05-07T06:29:38;17.20;;;12.25;;
52724;SDS011;38621;52.830;6.914;2023-05-07T06:32:07;18.88;;;12.90;;
52724;SDS011;38621;52.830;6.914;2023-05-07T06:34:34;18.77;;;12.82;;
52724;SDS011;38621;52.830;6.914;2023-05-07T06:37:01;17.95;;;14.10;;
52724;SDS011;38621;52.830;6.914;2023-05-07T06:39:27;17.80;;;13.45;;
52724;SDS011;38621;52.830;6.914;2023-05-07T06:41:53;18.35;;;14.07;;
52724;SDS011;38621;52.830;6.914;2023-05-07T06:44:18;20.15;;;14.18;;
52724;SDS011;38621;52.830;6.914;2023-05-07T06:46:44;20.38;;;14.40;;
52724;SDS011;38621;52.830;6.914;2023-05-07T06:49:10;18.98;;;13.00;;
52724;SDS011;38621;52.830;6.914;2023-05-07T06:51:38;20.05;;;14.48;;
52724;SDS011;38621;52.830;6.914;2023-05-07T06:54:04;18.38;;;13.07;;
52724;SDS011;38621;52.830;6.914;2023-05-07T06:56:30;19.48;;;13.80;;
52724;SDS011;38621;52.830;6.914;2023-05-07T06:58:56;18.73;;;12.98;;
52724;SDS011;38621;52.830;6.914;2023-05-07T07:01:22;19.00;;;13.65;;
52724;SDS011;38621;52.830;6.914;2023-05-07T07:03:47;20.00;;;13.43;;
52724;SDS011;38621;52.830;6.914;2023-05-07T07:06:13;21.60;;;13.95;;
52724;SDS011;38621;52.830;6.914;2023-05-07T07:08:39;19.67;;;13.23;;
52724;SDS011;38621;52.830;6.914;2023-05-07T07:11:05;19.77;;;14.13;;
52724;SDS011;38621;52.830;6.914;2023-05-07T07:13:31;20.58;;;14.38;;
52724;SDS011;38621;52.830;6.914;2023-05-07T07:15:57;20.05;;;13.55;;
52724;SDS011;38621;52.830;6.914;2023-05-07T07:18:24;20.85;;;14.45;;
52724;SDS011;38621;52.830;6.914;2023-05-07T07:20:50;19.05;;;13.38;;
52724;SDS011;38621;52.830;6.914;2023-05-07T07:23:16;20.95;;;13.75;;
52724;SDS011;38621;52.830;6.914;2023-05-07T07:25:41;19.77;;;14.20;;
52724;SDS011;38621;52.830;6.914;2023-05-07T07:28:07;22.63;;;14.65;;
52724;SDS011;38621;52.830;6.914;2023-05-07T07:30:33;21.52;;;13.73;;
52724;SDS011;38621;52.830;6.914;2023-05-07T07:32:59;20.17;;;14.13;;
52724;SDS011;38621;52.830;6.914;2023-05-07T07:35:31;21.35;;;13.40;;
52724;SDS011;38621;52.830;6.914;2023-05-07T07:37:57;21.20;;;14.43;;
52724;SDS011;38621;52.830;6.914;2023-05-07T07:40:23;21.92;;;14.35;;
52724;SDS011;38621;52.830;6.914;2023-05-07T07:42:50;19.73;;;13.63;;
52724;SDS011;38621;52.830;6.914;2023-05-07T07:45:16;20.77;;;14.55;;
52724;SDS011;38621;52.830;6.914;2023-05-07T07:47:42;20.50;;;13.38;;
52724;SDS011;38621;52.830;6.914;2023-05-07T07:50:08;20.95;;;14.27;;
52724;SDS011;38621;52.830;6.914;2023-05-07T07:52:34;19.05;;;15.02;;
52724;SDS011;38621;52.830;6.914;2023-05-07T07:55:00;20.98;;;14.52;;
52724;SDS011;38621;52.830;6.914;2023-05-07T07:57:26;20.35;;;14.07;;
52724;SDS011;38621;52.830;6.914;2023-05-07T07:59:52;20.00;;;15.07;;
52724;SDS011;38621;52.830;6.914;2023-05-07T08:02:18;20.25;;;14.00;;
52724;SDS011;38621;52.830;6.914;2023-05-07T08:04:43;19.00;;;14.32;;
52724;SDS011;38621;52.830;6.914;2023-05-07T08:07:09;18.20;;;13.52;;
52724;SDS011;38621;52.830;6.914;2023-05-07T08:09:36;19.65;;;13.40;;
52724;SDS011;38621;52.830;6.914;2023-05-07T08:12:03;19.88;;;14.38;;
52724;SDS011;38621;52.830;6.914;2023-05-07T08:14:29;20.20;;;14.50;;
52724;SDS011;38621;52.830;6.914;2023-05-07T08:16:55;19.88;;;14.20;;
52724;SDS011;38621;52.830;6.914;2023-05-07T08:19:20;18.50;;;13.80;;
52724;SDS011;38621;52.830;6.914;2023-05-07T08:21:46;19.00;;;14.02;;
52724;SDS011;38621;52.830;6.914;2023-05-07T08:24:16;20.23;;;13.90;;
52724;SDS011;38621;52.830;6.914;2023-05-07T08:26:42;17.95;;;13.23;;
52724;SDS011;38621;52.830;6.914;2023-05-07T08:29:09;19.33;;;13.32;;
52724;SDS011;38621;52.830;6.914;2023-05-07T08:31:35;19.08;;;14.20;;
52724;SDS011;38621;52.830;6.914;2023-05-07T08:34:00;18.10;;;13.60;;
52724;SDS011;38621;52.830;6.914;2023-05-07T08:36:26;17.63;;;13.40;;
52724;SDS011;38621;52.830;6.914;2023-05-07T08:38:52;18.08;;;13.80;;
52724;SDS011;38621;52.830;6.914;2023-05-07T08:41:18;17.67;;;13.05;;
52724;SDS011;38621;52.830;6.914;2023-05-07T08:43:47;18.90;;;13.25;;
52724;SDS011;38621;52.830;6.914;2023-05-07T08:46:17;19.02;;;13.85;;
52724;SDS011;38621;52.830;6.914;2023-05-07T08:48:50;17.25;;;12.75;;
52724;SDS011;38621;52.830;6.914;2023-05-07T08:51:20;17.17;;;11.90;;
52724;SDS011;38621;52.830;6.914;2023-05-07T08:53:46;16.25;;;12.27;;
52724;SDS011;38621;52.830;6.914;2023-05-07T08:56:13;16.33;;;12.40;;
52724;SDS011;38621;52.830;6.914;2023-05-07T08:58:41;16.48;;;11.95;;
52724;SDS011;38621;52.830;6.914;2023-05-07T09:01:12;16.08;;;12.07;;
52724;SDS011;38621;52.830;6.914;2023-05-07T09:03:39;16.67;;;11.82;;
52724;SDS011;38621;52.830;6.914;2023-05-07T09:06:05;15.80;;;12.68;;
52724;SDS011;38621;52.830;6.914;2023-05-07T09:08:34;14.45;;;11.68;;
52724;SDS011;38621;52.830;6.914;2023-05-07T09:11:01;18.60;;;13.07;;
52724;SDS011;38621;52.830;6.914;2023-05-07T09:13:27;14.75;;;11.63;;
52724;SDS011;38621;52.830;6.914;2023-05-07T09:15:53;15.45;;;11.80;;
52724;SDS011;38621;52.830;6.914;2023-05-07T09:18:19;13.85;;;10.80;;
52724;SDS011;38621;52.830;6.914;2023-05-07T09:20:45;14.75;;;11.07;;
52724;SDS011;38621;52.830;6.914;2023-05-07T09:23:11;14.50;;;11.18;;
52724;SDS011;38621;52.830;6.914;2023-05-07T09:25:36;15.25;;;11.52;;
52724;SDS011;38621;52.830;6.914;2023-05-07T09:28:03;13.73;;;10.95;;
52724;SDS011;38621;52.830;6.914;2023-05-07T09:30:32;15.77;;;11.30;;
52724;SDS011;38621;52.830;6.914;2023-05-07T09:32:59;13.95;;;11.00;;
52724;SDS011;38621;52.830;6.914;2023-05-07T09:35:26;13.77;;;10.43;;
52724;SDS011;38621;52.830;6.914;2023-05-07T09:37:53;12.32;;;9.82;;
52724;SDS011;38621;52.830;6.914;2023-05-07T09:40:20;12.68;;;10.68;;
52724;SDS011;38621;52.830;6.914;2023-05-07T09:42:56;12.40;;;9.95;;
52724;SDS011;38621;52.830;6.914;2023-05-07T09:45:33;13.13;;;10.27;;
52724;SDS011;38621;52.830;6.914;2023-05-07T09:47:59;14.07;;;10.50;;
52724;SDS011;38621;52.830;6.914;2023-05-07T09:50:28;12.70;;;10.20;;
52724;SDS011;38621;52.830;6.914;2023-05-07T09:52:55;12.93;;;10.63;;
52724;SDS011;38621;52.830;6.914;2023-05-07T09:55:22;13.68;;;10.18;;
52724;SDS011;38621;52.830;6.914;2023-05-07T09:57:52;13.52;;;10.20;;
52724;SDS011;38621;52.830;6.914;2023-05-07T10:00:19;12.48;;;10.30;;
52724;SDS011;38621;52.830;6.914;2023-05-07T10:02:47;15.35;;;11.77;;
52724;SDS011;38621;52.830;6.914;2023-05-07T10:05:14;12.55;;;10.25;;
52724;SDS011;38621;52.830;6.914;2023-05-07T10:07:41;12.60;;;10.32;;
52724;SDS011;38621;52.830;6.914;2023-05-07T10:10:08;12.95;;;9.60;;
52724;SDS011;38621;52.830;6.914;2023-05-07T10:12:34;12.73;;;10.45;;
52724;SDS011;38621;52.830;6.914;2023-05-07T10:15:07;11.57;;;9.70;;
52724;SDS011;38621;52.830;6.914;2023-05-07T10:17:38;11.40;;;8.90;;
52724;SDS011;38621;52.830;6.914;2023-05-07T10:20:05;11.07;;;9.63;;
52724;SDS011;38621;52.830;6.914;2023-05-07T10:22:33;13.15;;;10.27;;
52724;SDS011;38621;52.830;6.914;2023-05-07T10:25:05;11.93;;;10.07;;
52724;SDS011;38621;52.830;6.914;2023-05-07T10:27:39;11.52;;;9.25;;
52724;SDS011;38621;52.830;6.914;2023-05-07T10:33:26;13.23;;;10.35;;
52724;SDS011;38621;52.830;6.914;2023-05-07T10:35:55;12.68;;;10.30;;
52724;SDS011;38621;52.830;6.914;2023-05-07T10:38:24;11.75;;;9.82;;
52724;SDS011;38621;52.830;6.914;2023-05-07T10:40:51;12.68;;;10.32;;
52724;SDS011;38621;52.830;6.914;2023-05-07T10:43:17;13.50;;;10.13;;
52724;SDS011;38621;52.830;6.914;2023-05-07T10:45:43;13.50;;;10.95;;
52724;SDS011;38621;52.830;6.914;2023-05-07T10:48:29;12.45;;;9.75;;
52724;SDS011;38621;52.830;6.914;2023-05-07T10:53:43;13.63;;;11.10;;
52724;SDS011;38621;52.830;6.914;2023-05-07T10:58:43;11.05;;;9.95;;
52724;SDS011;38621;52.830;6.914;2023-05-07T11:01:10;11.40;;;9.68;;
52724;SDS011;38621;52.830;6.914;2023-05-07T11:03:37;11.57;;;10.13;;
52724;SDS011;38621;52.830;6.914;2023-05-07T11:06:40;11.60;;;9.57;;
52724;SDS011;38621;52.830;6.914;2023-05-07T11:09:05;12.57;;;10.35;;
52724;SDS011;38621;52.830;6.914;2023-05-07T11:14:13;12.30;;;9.90;;
52724;SDS011;38621;52.830;6.914;2023-05-07T11:17:03;11.60;;;9.52;;
52724;SDS011;38621;52.830;6.914;2023-05-07T11:25:04;11.38;;;9.60;;
52724;SDS011;38621;52.830;6.914;2023-05-07T11:27:31;10.52;;;9.48;;
52724;SDS011;38621;52.830;6.914;2023-05-07T11:29:57;11.35;;;9.23;;
52724;SDS011;38621;52.830;6.914;2023-05-07T11:32:31;10.30;;;9.20;;
52724;SDS011;38621;52.830;6.914;2023-05-07T11:34:58;10.50;;;9.50;;
52724;SDS011;38621;52.830;6.914;2023-05-07T11:37:25;10.02;;;8.88;;
52724;SDS011;38621;52.830;6.914;2023-05-07T11:40:06;10.93;;;9.32;;
52724;SDS011;38621;52.830;6.914;2023-05-07T11:42:35;10.23;;;9.20;;
52724;SDS011;38621;52.830;6.914;2023-05-07T11:45:04;9.80;;;8.80;;
52724;SDS011;38621;52.830;6.914;2023-05-07T11:47:31;10.73;;;8.98;;
52724;SDS011;38621;52.830;6.914;2023-05-07T11:50:02;9.93;;;8.93;;
52724;SDS011;38621;52.830;6.914;2023-05-07T11:52:30;9.38;;;8.48;;
52724;SDS011;38621;52.830;6.914;2023-05-07T11:54:56;9.60;;;8.60;;
52724;SDS011;38621;52.830;6.914;2023-05-07T11:57:23;9.95;;;8.35;;
52724;SDS011;38621;52.830;6.914;2023-05-07T11:59:56;9.73;;;8.73;;
52724;SDS011;38621;52.830;6.914;2023-05-07T12:02:23;9.40;;;8.50;;
52724;SDS011;38621;52.830;6.914;2023-05-07T12:04:53;11.15;;;8.55;;
52724;SDS011;38621;52.830;6.914;2023-05-07T12:07:19;10.50;;;9.43;;
52724;SDS011;38621;52.830;6.914;2023-05-07T12:09:45;10.48;;;9.15;;
52724;SDS011;38621;52.830;6.914;2023-05-07T12:12:12;9.77;;;8.55;;
52724;SDS011;38621;52.830;6.914;2023-05-07T12:14:40;10.30;;;9.02;;
52724;SDS011;38621;52.830;6.914;2023-05-07T12:17:07;9.50;;;8.50;;
52724;SDS011;38621;52.830;6.914;2023-05-07T12:19:34;9.85;;;8.85;;
52724;SDS011;38621;52.830;6.914;2023-05-07T12:22:02;10.38;;;9.27;;
52724;SDS011;38621;52.830;6.914;2023-05-07T12:24:28;10.55;;;8.77;;
52724;SDS011;38621;52.830;6.914;2023-05-07T12:26:54;10.13;;;8.77;;
52724;SDS011;38621;52.830;6.914;2023-05-07T12:29:23;9.27;;;8.27;;
52724;SDS011;38621;52.830;6.914;2023-05-07T12:31:49;9.32;;;8.40;;
52724;SDS011;38621;52.830;6.914;2023-05-07T12:34:15;10.45;;;9.05;;
52724;SDS011;38621;52.830;6.914;2023-05-07T12:36:41;10.70;;;8.90;;
52724;SDS011;38621;52.830;6.914;2023-05-07T12:39:07;9.10;;;8.23;;
52724;SDS011;38621;52.830;6.914;2023-05-07T12:44:21;11.68;;;7.95;;
52724;SDS011;38621;52.830;6.914;2023-05-07T12:46:48;9.00;;;8.10;;
52724;SDS011;38621;52.830;6.914;2023-05-07T12:49:14;9.70;;;8.10;;
52724;SDS011;38621;52.830;6.914;2023-05-07T12:51:40;9.82;;;8.80;;
52724;SDS011;38621;52.830;6.914;2023-05-07T12:54:05;8.77;;;7.88;;
52724;SDS011;38621;52.830;6.914;2023-05-07T12:56:31;8.02;;;7.25;;
52724;SDS011;38621;52.830;6.914;2023-05-07T12:59:00;8.88;;;7.97;;
52724;SDS011;38621;52.830;6.914;2023-05-07T13:01:29;8.65;;;7.75;;
52724;SDS011;38621;52.830;6.914;2023-05-07T13:03:56;8.95;;;8.07;;
52724;SDS011;38621;52.830;6.914;2023-05-07T13:06:26;9.02;;;8.13;;
52724;SDS011;38621;52.830;6.914;2023-05-07T13:08:51;9.02;;;8.00;;
52724;SDS011;38621;52.830;6.914;2023-05-07T13:11:18;8.80;;;7.55;;
52724;SDS011;38621;52.830;6.914;2023-05-07T13:13:43;8.63;;;7.63;;
52724;SDS011;38621;52.830;6.914;2023-05-07T13:16:09;8.95;;;8.05;;
52724;SDS011;38621;52.830;6.914;2023-05-07T13:18:37;9.32;;;8.43;;
52724;SDS011;38621;52.830;6.914;2023-05-07T13:21:04;9.18;;;8.27;;
52724;SDS011;38621;52.830;6.914;2023-05-07T13:23:30;8.45;;;7.63;;
52724;SDS011;38621;52.830;6.914;2023-05-07T13:25:55;10.85;;;8.20;;
52724;SDS011;38621;52.830;6.914;2023-05-07T13:28:22;8.73;;;7.82;;
52724;SDS011;38621;52.830;6.914;2023-05-07T13:30:48;8.25;;;7.15;;
52724;SDS011;38621;52.830;6.914;2023-05-07T13:33:14;9.00;;;8.10;;
52724;SDS011;38621;52.830;6.914;2023-05-07T13:35:41;8.52;;;7.70;;
52724;SDS011;38621;52.830;6.914;2023-05-07T13:38:06;8.13;;;7.32;;
52724;SDS011;38621;52.830;6.914;2023-05-07T13:40:33;8.20;;;7.40;;
52724;SDS011;38621;52.830;6.914;2023-05-07T13:42:58;8.35;;;7.45;;
52724;SDS011;38621;52.830;6.914;2023-05-07T13:45:27;8.40;;;7.55;;
52724;SDS011;38621;52.830;6.914;2023-05-07T13:47:54;8.98;;;8.10;;
52724;SDS011;38621;52.830;6.914;2023-05-07T13:50:20;8.93;;;7.93;;
52724;SDS011;38621;52.830;6.914;2023-05-07T13:52:46;8.50;;;7.70;;
52724;SDS011;38621;52.830;6.914;2023-05-07T13:55:19;8.07;;;7.30;;
52724;SDS011;38621;52.830;6.914;2023-05-07T13:57:54;8.90;;;7.47;;
52724;SDS011;38621;52.830;6.914;2023-05-07T14:00:28;8.48;;;7.60;;
52724;SDS011;38621;52.830;6.914;2023-05-07T14:02:55;7.85;;;7.13;;
52724;SDS011;38621;52.830;6.914;2023-05-07T14:05:21;8.15;;;7.35;;
52724;SDS011;38621;52.830;6.914;2023-05-07T14:07:52;8.50;;;7.68;;
52724;SDS011;38621;52.830;6.914;2023-05-07T14:10:19;7.97;;;6.85;;
52724;SDS011;38621;52.830;6.914;2023-05-07T14:12:45;8.25;;;7.35;;
52724;SDS011;38621;52.830;6.914;2023-05-07T14:15:12;8.15;;;7.35;;
52724;SDS011;38621;52.830;6.914;2023-05-07T14:17:38;8.05;;;7.25;;
52724;SDS011;38621;52.830;6.914;2023-05-07T14:20:04;7.60;;;6.90;;
52724;SDS011;38621;52.830;6.914;2023-05-07T14:22:31;8.05;;;7.25;;
52724;SDS011;38621;52.830;6.914;2023-05-07T14:24:57;7.82;;;6.72;;
52724;SDS011;38621;52.830;6.914;2023-05-07T14:27:23;7.47;;;6.75;;
52724;SDS011;38621;52.830;6.914;2023-05-07T14:29:49;7.68;;;6.57;;
52724;SDS011;38621;52.830;6.914;2023-05-07T14:32:16;8.15;;;7.35;;
52724;SDS011;38621;52.830;6.914;2023-05-07T14:34:43;7.10;;;6.40;;
52724;SDS011;38621;52.830;6.914;2023-05-07T14:37:09;7.75;;;6.78;;
52724;SDS011;38621;52.830;6.914;2023-05-07T14:39:35;8.23;;;6.95;;
52724;SDS011;38621;52.830;6.914;2023-05-07T14:42:01;7.75;;;6.95;;
52724;SDS011;38621;52.830;6.914;2023-05-07T14:44:27;7.70;;;6.90;;
52724;SDS011;38621;52.830;6.914;2023-05-07T14:46:53;7.07;;;6.38;;